createdAt,value
2018-05-10T00:01:33.445Z,19.73
2018-05-10T00:04:01.013Z,22.17
2018-05-10T00:06:29.385Z,18.83
2018-05-10T00:08:57.721Z,20.63
2018-05-10T00:11:25.398Z,21.73
2018-05-10T00:13:52.973Z,25.07
2018-05-10T00:16:22.077Z,24.57
2018-05-10T00:18:49.635Z,20.30
2018-05-10T00:21:17.981Z,23.20
2018-05-10T00:23:45.562Z,20.37
2018-05-10T00:26:13.130Z,25.30
2018-05-10T00:28:41.501Z,27.40
2018-05-10T00:31:09.934Z,20.53
2018-05-10T00:33:37.554Z,24.63
2018-05-10T00:36:05.998Z,24.17
2018-05-10T00:38:33.556Z,19.67
2018-05-10T00:41:01.160Z,26.87
2018-05-10T00:46:02.538Z,20.67
2018-05-10T00:48:30.098Z,24.20
2018-05-10T00:50:57.656Z,18.90
2018-05-10T00:53:25.249Z,20.53
2018-05-10T00:55:52.801Z,22.20
2018-05-10T00:58:20.390Z,28.27
2018-05-10T01:00:47.976Z,27.07
2018-05-10T01:03:16.316Z,20.13
2018-05-10T01:05:43.912Z,25.33
2018-05-10T01:08:12.286Z,19.60
2018-05-10T01:10:40.624Z,22.63
2018-05-10T01:13:08.220Z,23.87
2018-05-10T01:15:35.807Z,22.77
2018-05-10T01:18:03.369Z,22.20
2018-05-10T01:20:30.954Z,27.23
2018-05-10T01:22:58.519Z,25.47
2018-05-10T01:25:26.100Z,19.80
2018-05-10T01:27:53.747Z,24.00
2018-05-10T01:30:21.299Z,27.00
2018-05-10T01:32:48.861Z,30.07
2018-05-10T01:35:28.384Z,23.67
2018-05-10T01:37:55.937Z,26.93
2018-05-10T01:40:23.601Z,27.33
2018-05-10T01:42:51.226Z,26.03
2018-05-10T01:45:19.544Z,23.23
2018-05-10T01:47:47.137Z,24.07
2018-05-10T01:50:14.758Z,23.90
2018-05-10T01:52:42.883Z,25.40
2018-05-10T01:55:11.201Z,27.33
2018-05-10T01:57:39.233Z,19.70
2018-05-10T02:00:06.792Z,21.57
2018-05-10T02:02:35.122Z,27.37
2018-05-10T02:05:02.719Z,25.10
2018-05-10T02:07:30.313Z,24.43
2018-05-10T02:09:58.819Z,22.10
2018-05-10T02:12:26.395Z,24.53
2018-05-10T02:14:54.154Z,20.20
2018-05-10T02:17:21.751Z,25.83
2018-05-10T02:19:49.313Z,21.97
2018-05-10T02:22:17.680Z,23.70
2018-05-10T02:24:45.560Z,24.73
2018-05-10T02:27:13.962Z,22.27
2018-05-10T02:29:41.544Z,29.73
2018-05-10T02:32:09.089Z,26.10
2018-05-10T02:34:36.703Z,28.57
2018-05-10T02:37:05.045Z,23.00
2018-05-10T02:39:32.607Z,24.17
2018-05-10T02:42:00.223Z,22.00
2018-05-10T02:44:28.547Z,17.70
2018-05-10T02:46:56.362Z,20.57
2018-05-10T02:49:24.700Z,23.07
2018-05-10T02:51:52.262Z,21.40
2018-05-10T02:54:20.056Z,19.87
2018-05-10T02:56:48.380Z,23.70
2018-05-10T02:59:16.042Z,22.50
2018-05-10T03:01:43.624Z,23.73
2018-05-10T03:04:11.189Z,28.10
2018-05-10T03:06:39.255Z,26.67
2018-05-10T03:09:06.812Z,26.60
2018-05-10T03:11:34.447Z,21.73
2018-05-10T03:14:02.047Z,23.77
2018-05-10T03:16:29.607Z,25.33
2018-05-10T03:18:57.687Z,15.83
2018-05-10T03:21:25.247Z,23.87
2018-05-10T03:23:52.803Z,23.53
2018-05-10T03:26:20.621Z,19.47
2018-05-10T03:28:48.591Z,25.27
2018-05-10T03:31:16.168Z,18.80
2018-05-10T03:33:43.760Z,27.50
2018-05-10T03:36:12.132Z,22.83
2018-05-10T03:38:39.741Z,22.63
2018-05-10T03:41:07.316Z,25.67
2018-05-10T03:43:34.936Z,23.77
2018-05-10T03:46:03.256Z,19.97
2018-05-10T03:48:30.862Z,18.33
2018-05-10T03:50:59.191Z,18.63
2018-05-10T03:53:26.955Z,24.80
2018-05-10T03:55:54.531Z,20.03
2018-05-10T03:58:22.080Z,16.70
2018-05-10T04:00:49.676Z,17.67
2018-05-10T04:03:50.937Z,19.17
2018-05-10T04:06:31.265Z,17.40
2018-05-10T04:09:10.756Z,22.33
2018-05-10T04:11:38.345Z,18.53
2018-05-10T04:14:05.954Z,18.57
2018-05-10T04:16:34.292Z,21.77
2018-05-10T04:19:02.544Z,19.10
2018-05-10T04:21:30.113Z,18.30
2018-05-10T04:23:57.989Z,18.20
2018-05-10T04:26:25.538Z,20.83
2018-05-10T04:28:53.104Z,15.90
2018-05-10T04:31:20.811Z,29.97
2018-05-10T04:33:49.153Z,20.57
2018-05-10T04:36:17.462Z,22.57
2018-05-10T04:38:45.794Z,17.23
2018-05-10T04:41:13.373Z,18.80
2018-05-10T04:43:41.463Z,19.87
2018-05-10T04:46:09.041Z,17.53
2018-05-10T04:48:38.145Z,20.17
2018-05-10T04:51:05.746Z,19.63
2018-05-10T04:53:33.349Z,17.27
2018-05-10T04:56:01.680Z,20.03
2018-05-10T04:58:29.223Z,18.20
2018-05-10T05:00:56.961Z,15.83
2018-05-10T05:03:25.370Z,14.53
2018-05-10T05:05:52.862Z,19.50
2018-05-10T05:08:20.933Z,18.80
2018-05-10T05:10:48.547Z,20.17
2018-05-10T05:13:16.116Z,17.13
2018-05-10T05:15:43.686Z,18.97
2018-05-10T05:18:11.267Z,17.27
2018-05-10T05:20:38.842Z,20.27
2018-05-10T05:23:07.209Z,17.60
2018-05-10T05:25:34.781Z,21.67
2018-05-10T05:28:02.413Z,17.40
2018-05-10T05:30:30.036Z,17.17
2018-05-10T05:32:57.601Z,19.17
2018-05-10T05:35:25.503Z,16.60
2018-05-10T05:37:53.437Z,15.27
2018-05-10T05:40:21.034Z,18.90
2018-05-10T05:42:48.616Z,17.23
2018-05-10T05:45:17.014Z,16.20
2018-05-10T05:47:45.390Z,19.93
2018-05-10T05:50:13.989Z,17.30
2018-05-10T05:52:41.562Z,17.77
2018-05-10T05:55:09.304Z,13.83
2018-05-10T05:57:36.801Z,13.63
2018-05-10T06:00:04.367Z,14.87
2018-05-10T06:02:32.451Z,17.90
2018-05-10T06:05:00.084Z,17.63
2018-05-10T06:07:27.691Z,17.60
2018-05-10T06:09:56.015Z,15.00
2018-05-10T06:12:23.579Z,16.30
2018-05-10T06:14:51.186Z,15.50
2018-05-10T06:17:19.505Z,19.70
2018-05-10T06:19:47.069Z,16.83
2018-05-10T06:22:14.648Z,13.60
2018-05-10T06:24:42.242Z,14.93
2018-05-10T06:27:10.747Z,15.73
2018-05-10T06:29:38.294Z,20.67
2018-05-10T06:32:06.625Z,19.03
2018-05-10T06:34:34.249Z,12.50
2018-05-10T06:37:01.824Z,16.73
2018-05-10T06:39:29.406Z,14.90
2018-05-10T06:41:57.019Z,11.30
2018-05-10T06:44:24.583Z,10.37
2018-05-10T06:46:52.494Z,8.20
2018-05-10T06:49:20.911Z,7.63
2018-05-10T06:51:49.237Z,9.03
2018-05-10T06:54:16.881Z,12.30
2018-05-10T06:56:44.445Z,12.13
2018-05-10T06:59:12.034Z,12.53
2018-05-10T07:01:40.928Z,10.30
2018-05-10T07:04:08.496Z,14.30
2018-05-10T07:06:37.448Z,13.90
2018-05-10T07:09:05.029Z,14.03
2018-05-10T07:11:32.710Z,14.30
2018-05-10T07:14:00.311Z,13.60
2018-05-10T07:16:27.894Z,10.77
2018-05-10T07:18:55.609Z,13.23
2018-05-10T07:21:23.950Z,11.67
2018-05-10T07:23:52.252Z,16.63
2018-05-10T07:26:19.814Z,12.17
2018-05-10T07:28:47.404Z,11.67
2018-05-10T07:31:14.960Z,11.23
2018-05-10T07:33:42.519Z,15.67
2018-05-10T07:36:10.126Z,12.07
2018-05-10T07:38:37.676Z,11.07
2018-05-10T07:41:05.253Z,15.57
2018-05-10T07:43:34.343Z,13.70
2018-05-10T07:46:01.903Z,8.77
2018-05-10T07:48:29.465Z,12.57
2018-05-10T07:50:57.098Z,9.30
2018-05-10T07:53:24.662Z,11.63
2018-05-10T07:55:52.290Z,12.77
2018-05-10T07:58:19.971Z,11.10
2018-05-10T08:00:47.539Z,9.27
2018-05-10T08:03:15.171Z,8.33
2018-05-10T08:05:42.731Z,10.57
2018-05-10T08:08:10.407Z,8.90
2018-05-10T08:10:38.096Z,11.13
2018-05-10T08:13:06.272Z,10.63
2018-05-10T08:15:33.818Z,10.97
2018-05-10T08:18:01.617Z,12.90
2018-05-10T08:20:29.167Z,10.00
2018-05-10T08:22:57.579Z,9.40
2018-05-10T08:25:25.474Z,12.73
2018-05-10T08:27:53.058Z,15.70
2018-05-10T08:30:20.688Z,12.43
2018-05-10T08:32:49.665Z,14.77
2018-05-10T08:35:18.063Z,12.00
2018-05-10T08:37:45.816Z,11.67
2018-05-10T08:40:13.823Z,10.87
2018-05-10T08:42:42.689Z,12.13
2018-05-10T08:45:10.537Z,9.80
2018-05-10T08:47:38.083Z,9.80
2018-05-10T08:50:06.495Z,12.00
2018-05-10T08:52:34.061Z,11.13
2018-05-10T08:55:02.027Z,14.97
2018-05-10T08:57:29.578Z,13.03
2018-05-10T08:59:57.139Z,9.47
2018-05-10T09:02:24.752Z,11.30
2018-05-10T09:04:53.084Z,16.10
2018-05-10T09:07:20.734Z,11.57
2018-05-10T09:09:48.248Z,11.53
2018-05-10T09:12:15.818Z,10.53
2018-05-10T09:14:44.171Z,9.13
2018-05-10T09:17:11.876Z,9.50
2018-05-10T09:19:39.607Z,7.00
2018-05-10T09:22:07.160Z,7.27
2018-05-10T09:24:34.872Z,7.67
2018-05-10T09:27:02.418Z,8.10
2018-05-10T09:29:29.977Z,8.60
2018-05-10T09:31:57.704Z,6.73
2018-05-10T09:34:25.321Z,6.53
2018-05-10T09:36:52.893Z,9.33
2018-05-10T09:39:20.545Z,5.03
2018-05-10T09:41:48.095Z,7.50
2018-05-10T09:44:15.657Z,11.30
2018-05-10T09:46:43.257Z,11.10
2018-05-10T09:49:11.103Z,4.93
2018-05-10T09:51:38.658Z,4.87
2018-05-10T09:54:06.224Z,7.17
2018-05-10T09:56:33.902Z,7.53
2018-05-10T09:59:02.212Z,6.33
2018-05-10T10:01:30.598Z,6.63
2018-05-10T10:03:58.154Z,7.03
2018-05-10T10:06:25.712Z,7.60
2018-05-10T10:08:53.294Z,7.03
2018-05-10T10:11:21.031Z,6.30
2018-05-10T10:13:49.356Z,8.10
2018-05-10T10:16:17.671Z,9.73
2018-05-10T10:18:46.011Z,9.20
2018-05-10T10:21:13.637Z,6.63
2018-05-10T10:23:41.220Z,6.80
2018-05-10T10:26:08.822Z,10.17
2018-05-10T10:28:37.210Z,6.23
2018-05-10T10:31:05.520Z,5.50
2018-05-10T10:33:33.066Z,8.87
2018-05-10T10:36:00.650Z,8.87
2018-05-10T10:38:28.195Z,7.00
2018-05-10T10:40:55.763Z,7.77
2018-05-10T10:43:23.342Z,6.03
2018-05-10T10:45:50.894Z,6.90
2018-05-10T10:48:18.562Z,5.90
2018-05-10T10:50:46.203Z,8.50
2018-05-10T10:53:13.822Z,7.83
2018-05-10T10:55:42.156Z,7.57
2018-05-10T10:58:09.706Z,7.47
2018-05-10T11:00:37.290Z,6.97
2018-05-10T11:03:04.933Z,7.77
2018-05-10T11:05:32.486Z,8.10
2018-05-10T11:08:00.100Z,5.70
2018-05-10T11:10:28.462Z,5.57
2018-05-10T11:12:56.014Z,4.83
2018-05-10T11:15:23.578Z,8.90
2018-05-10T11:17:51.179Z,6.53
2018-05-10T11:20:18.747Z,6.77
2018-05-10T11:22:46.312Z,7.30
2018-05-10T11:25:14.073Z,4.00
2018-05-10T11:27:41.832Z,4.97
2018-05-10T11:30:09.403Z,4.63
2018-05-10T11:32:37.164Z,4.47
2018-05-10T11:35:04.717Z,7.30
2018-05-10T11:37:32.379Z,5.97
2018-05-10T11:39:59.936Z,6.53
2018-05-10T11:42:27.616Z,4.83
2018-05-10T11:44:55.905Z,5.97
2018-05-10T11:47:23.465Z,5.63
2018-05-10T11:49:51.097Z,4.27
2018-05-10T11:52:18.654Z,4.13
2018-05-10T11:54:46.275Z,4.30
2018-05-10T11:57:13.981Z,4.63
2018-05-10T11:59:44.408Z,6.33
2018-05-10T12:02:12.043Z,5.37
2018-05-10T12:04:39.626Z,5.13
2018-05-10T12:07:07.213Z,4.77
2018-05-10T12:09:34.819Z,11.30
2018-05-10T12:12:02.406Z,5.77
2018-05-10T12:14:30.066Z,6.60
2018-05-10T12:16:57.625Z,4.37
2018-05-10T12:19:25.327Z,4.87
2018-05-10T12:21:52.864Z,6.27
2018-05-10T12:24:20.459Z,3.73
2018-05-10T12:26:48.801Z,7.13
2018-05-10T12:29:16.529Z,5.10
2018-05-10T12:31:44.031Z,4.27
2018-05-10T12:34:11.607Z,3.60
2018-05-10T12:36:39.523Z,7.53
2018-05-10T12:39:07.266Z,3.77
2018-05-10T12:41:35.716Z,2.50
2018-05-10T12:44:03.699Z,4.63
2018-05-10T12:46:32.028Z,4.90
2018-05-10T12:49:00.101Z,5.27
2018-05-10T12:51:27.698Z,5.10
2018-05-10T12:53:55.265Z,4.77
2018-05-10T12:56:23.662Z,3.57
2018-05-10T12:58:51.198Z,2.67
2018-05-10T13:01:18.755Z,7.03
2018-05-10T13:03:47.052Z,5.97
2018-05-10T13:06:15.381Z,5.30
2018-05-10T13:08:42.939Z,2.60
2018-05-10T13:11:10.591Z,6.10
2018-05-10T13:13:38.182Z,4.07
2018-05-10T13:16:05.776Z,5.43
2018-05-10T13:18:34.165Z,5.73
2018-05-10T13:21:01.720Z,3.97
2018-05-10T13:23:29.276Z,3.53
2018-05-10T13:25:56.960Z,3.37
2018-05-10T13:28:24.522Z,2.93
2018-05-10T13:30:52.123Z,3.03
2018-05-10T13:33:20.441Z,2.50
2018-05-10T13:35:48.005Z,3.90
2018-05-10T13:38:15.786Z,3.83
2018-05-10T13:40:43.464Z,6.10
2018-05-10T13:43:11.064Z,5.77
2018-05-10T13:45:39.420Z,6.47
2018-05-10T13:48:07.764Z,3.17
2018-05-10T13:50:35.376Z,6.13
2018-05-10T13:53:03.745Z,5.30
2018-05-10T13:55:31.283Z,4.03
2018-05-10T13:57:58.878Z,4.37
2018-05-10T14:00:27.226Z,4.20
2018-05-10T14:02:56.301Z,7.00
2018-05-10T14:05:23.891Z,5.53
2018-05-10T14:07:51.485Z,4.27
2018-05-10T14:10:19.125Z,5.47
2018-05-10T14:12:47.448Z,9.30
2018-05-10T14:15:15.021Z,7.47
2018-05-10T14:17:42.609Z,3.73
2018-05-10T14:20:10.933Z,4.07
2018-05-10T14:22:38.503Z,5.50
2018-05-10T14:25:06.128Z,3.73
2018-05-10T14:27:33.695Z,5.47
2018-05-10T14:30:01.281Z,8.67
2018-05-10T14:32:28.895Z,3.60
2018-05-10T14:34:57.220Z,4.37
2018-05-10T14:37:24.777Z,3.63
2018-05-10T14:39:52.347Z,3.23
2018-05-10T14:42:19.936Z,3.47
2018-05-10T14:44:47.499Z,5.03
2018-05-10T14:47:16.196Z,4.63
2018-05-10T14:49:44.637Z,3.90
2018-05-10T14:52:12.212Z,5.27
2018-05-10T14:54:39.846Z,3.70
2018-05-10T14:57:07.429Z,3.53
2018-05-10T14:59:34.985Z,4.27
2018-05-10T15:02:03.363Z,8.67
2018-05-10T15:04:30.995Z,4.03
2018-05-10T15:06:58.554Z,5.43
2018-05-10T15:09:26.131Z,4.50
2018-05-10T15:11:53.740Z,2.43
2018-05-10T15:14:21.296Z,4.57
2018-05-10T15:16:49.626Z,6.13
2018-05-10T15:19:17.208Z,3.53
2018-05-10T15:21:45.552Z,4.77
2018-05-10T15:24:13.118Z,4.40
2018-05-10T15:26:40.709Z,3.63
2018-05-10T15:29:09.033Z,4.63
2018-05-10T15:31:36.625Z,4.50
2018-05-10T15:34:04.168Z,5.67
2018-05-10T15:36:31.722Z,5.10
2018-05-10T15:38:59.323Z,4.43
2018-05-10T15:41:26.895Z,4.70
2018-05-10T15:43:55.265Z,5.00
2018-05-10T15:46:23.607Z,5.77
2018-05-10T15:48:51.192Z,5.47
2018-05-10T15:51:18.753Z,6.07
2018-05-10T15:53:46.332Z,5.53
2018-05-10T15:56:14.722Z,4.30
2018-05-10T15:58:42.280Z,5.00
2018-05-10T16:01:09.839Z,5.57
2018-05-10T16:03:37.433Z,4.00
2018-05-10T16:06:04.993Z,4.90
2018-05-10T16:08:32.640Z,6.33
2018-05-10T16:11:00.197Z,6.17
2018-05-10T16:13:27.756Z,2.90
2018-05-10T16:15:55.570Z,4.43
2018-05-10T16:18:23.359Z,3.10
2018-05-10T16:20:51.765Z,6.57
2018-05-10T16:23:19.354Z,5.73
2018-05-10T16:25:46.984Z,6.13
2018-05-10T16:28:14.645Z,7.43
2018-05-10T16:30:42.204Z,4.20
2018-05-10T16:33:09.784Z,4.37
2018-05-10T16:35:37.339Z,4.90
2018-05-10T16:38:04.918Z,7.70
2018-05-10T16:40:33.293Z,5.27
2018-05-10T16:43:00.839Z,6.57
2018-05-10T16:45:29.308Z,6.70
2018-05-10T16:47:56.895Z,3.73
2018-05-10T16:50:24.492Z,5.80
2018-05-10T16:52:52.093Z,6.40
2018-05-10T16:58:41.898Z,6.37
2018-05-10T17:01:09.470Z,5.57
2018-05-10T17:03:37.086Z,5.30
2018-05-10T17:06:04.652Z,3.93
2018-05-10T17:08:32.526Z,3.40
2018-05-10T17:11:00.103Z,7.80
2018-05-10T17:13:27.659Z,4.97
2018-05-10T17:15:55.857Z,4.03
2018-05-10T17:18:23.462Z,7.43
2018-05-10T17:20:51.706Z,6.67
2018-05-10T17:23:19.264Z,4.23
2018-05-10T17:25:47.588Z,4.23
2018-05-10T17:28:15.181Z,9.67
2018-05-10T17:30:43.300Z,13.47
2018-05-10T17:33:11.071Z,8.00
2018-05-10T17:35:38.819Z,9.00
2018-05-10T17:38:07.176Z,6.23
2018-05-10T17:40:35.541Z,8.53
2018-05-10T17:43:03.966Z,11.80
2018-05-10T17:45:31.533Z,10.03
2018-05-10T17:47:59.140Z,9.20
2018-05-10T17:50:27.626Z,7.60
2018-05-10T17:52:55.191Z,6.77
2018-05-10T17:55:22.828Z,11.53
2018-05-10T17:57:50.357Z,8.40
2018-05-10T18:00:17.949Z,10.53
2018-05-10T18:02:45.713Z,11.60
2018-05-10T18:05:13.340Z,8.73
2018-05-10T18:07:40.916Z,9.00
2018-05-10T18:10:10.512Z,10.10
2018-05-10T18:12:38.715Z,10.03
2018-05-10T18:15:06.409Z,12.97
2018-05-10T18:17:34.266Z,9.00
2018-05-10T18:20:03.182Z,10.13
2018-05-10T18:22:30.806Z,6.67
2018-05-10T18:24:58.518Z,8.97
2018-05-10T18:27:26.096Z,6.67
2018-05-10T18:29:53.705Z,8.53
2018-05-10T18:32:22.275Z,7.97
2018-05-10T18:34:49.858Z,5.13
2018-05-10T18:37:18.204Z,9.53
2018-05-10T18:39:45.793Z,5.80
2018-05-10T18:42:14.179Z,8.57
2018-05-10T18:44:42.530Z,9.83
2018-05-10T18:47:10.124Z,9.20
2018-05-10T18:49:37.683Z,9.30
2018-05-10T18:52:05.389Z,8.53
2018-05-10T18:54:33.035Z,9.33
2018-05-10T18:57:00.786Z,8.43
2018-05-10T18:59:28.389Z,7.27
2018-05-10T19:01:56.075Z,8.83
2018-05-10T19:04:23.581Z,10.20
2018-05-10T19:06:51.126Z,8.93
2018-05-10T19:11:53.346Z,8.47
2018-05-10T19:14:21.177Z,7.47
2018-05-10T19:16:48.834Z,7.43
2018-05-10T19:19:16.386Z,7.63
2018-05-10T19:21:44.061Z,7.40
2018-05-10T19:24:11.663Z,6.43
2018-05-10T19:26:40.816Z,7.77
2018-05-10T19:29:08.461Z,10.17
2018-05-10T19:31:36.039Z,10.27
2018-05-10T19:34:03.690Z,11.10
2018-05-10T19:36:31.284Z,13.00
2018-05-10T19:38:58.864Z,11.53
2018-05-10T19:41:28.354Z,9.10
2018-05-10T19:43:55.931Z,11.83
2018-05-10T19:46:24.273Z,13.77
2018-05-10T19:48:51.913Z,10.87
2018-05-10T19:51:19.563Z,9.53
2018-05-10T19:53:49.206Z,9.97
2018-05-10T19:56:17.111Z,11.90
2018-05-10T19:58:45.695Z,12.60
2018-05-10T20:01:14.158Z,8.83
2018-05-10T20:03:43.224Z,9.53
2018-05-10T20:06:10.995Z,14.73
2018-05-10T20:08:38.650Z,12.73
2018-05-10T20:11:06.192Z,13.87
2018-05-10T20:13:33.757Z,13.53
2018-05-10T20:16:01.339Z,12.10
2018-05-10T20:18:28.900Z,13.80
2018-05-10T20:20:56.503Z,15.27
2018-05-10T20:23:24.827Z,17.23
2018-05-10T20:25:52.582Z,11.93
2018-05-10T20:28:20.260Z,11.47
2018-05-10T20:30:48.176Z,12.20
2018-05-10T20:33:15.779Z,8.20
2018-05-10T20:35:43.362Z,13.40
2018-05-10T20:38:10.968Z,10.07
2018-05-10T20:40:38.603Z,12.30
2018-05-10T20:43:06.997Z,8.83
2018-05-10T20:45:34.850Z,7.57
2018-05-10T20:48:03.163Z,8.53
2018-05-10T20:50:30.850Z,9.00
2018-05-10T20:52:59.313Z,12.00
2018-05-10T20:55:26.964Z,9.07
2018-05-10T20:57:54.553Z,13.73
2018-05-10T21:00:22.145Z,10.43
2018-05-10T21:02:49.735Z,12.17
2018-05-10T21:05:17.402Z,9.20
2018-05-10T21:07:45.694Z,12.47
2018-05-10T21:10:13.285Z,10.87
2018-05-10T21:12:42.664Z,9.37
2018-05-10T21:15:10.302Z,9.30
2018-05-10T21:17:37.881Z,11.60
2018-05-10T21:20:05.526Z,14.30
2018-05-10T21:22:33.185Z,8.53
2018-05-10T21:25:00.802Z,14.10
2018-05-10T21:27:29.331Z,10.73
2018-05-10T21:29:56.887Z,10.87
2018-05-10T21:32:24.510Z,16.53
2018-05-10T21:34:52.843Z,9.73
2018-05-10T21:37:20.411Z,13.27
2018-05-10T21:39:48.044Z,13.83
2018-05-10T21:42:16.492Z,12.57
2018-05-10T21:44:44.828Z,11.40
2018-05-10T21:47:12.483Z,14.07
2018-05-10T21:49:51.871Z,15.33
2018-05-10T21:52:20.229Z,12.00
2018-05-10T21:54:47.810Z,15.13
2018-05-10T21:57:16.353Z,11.57
2018-05-10T21:59:43.927Z,13.80
2018-05-10T22:02:11.607Z,14.30
2018-05-10T22:04:39.935Z,17.57
2018-05-10T22:07:07.682Z,12.17
2018-05-10T22:09:35.269Z,10.83
2018-05-10T22:12:03.070Z,13.77
2018-05-10T22:14:30.881Z,11.57
2018-05-10T22:16:58.526Z,10.63
2018-05-10T22:19:26.108Z,11.60
2018-05-10T22:21:53.675Z,9.53
2018-05-10T22:24:21.271Z,12.73
2018-05-10T22:26:49.588Z,8.67
2018-05-10T22:29:17.148Z,9.17
2018-05-10T22:31:45.331Z,12.50
2018-05-10T22:34:13.007Z,11.50
2018-05-10T22:36:40.582Z,13.57
2018-05-10T22:39:08.917Z,11.77
2018-05-10T22:41:36.507Z,16.57
2018-05-10T22:44:04.112Z,11.80
2018-05-10T22:46:31.697Z,8.53
2018-05-10T22:48:59.323Z,12.10
2018-05-10T22:51:28.247Z,12.80
2018-05-10T22:53:56.160Z,10.03
2018-05-10T22:56:23.724Z,13.20
2018-05-10T22:58:52.090Z,10.67
2018-05-10T23:01:19.711Z,10.53
2018-05-10T23:03:47.370Z,14.10
2018-05-10T23:06:15.074Z,13.67
2018-05-10T23:08:42.572Z,18.03
2018-05-10T23:11:10.118Z,12.30
2018-05-10T23:13:38.450Z,15.43
2018-05-10T23:16:06.008Z,15.13
2018-05-10T23:18:33.644Z,14.37
2018-05-10T23:21:01.308Z,12.93
2018-05-10T23:23:29.129Z,15.90
2018-05-10T23:25:57.505Z,12.20
2018-05-10T23:28:25.832Z,14.23
2018-05-10T23:30:53.398Z,13.17
2018-05-10T23:33:21.034Z,10.53
2018-05-10T23:35:48.698Z,15.43
2018-05-10T23:38:16.266Z,11.53
2018-05-10T23:40:43.900Z,11.53
2018-05-10T23:43:11.481Z,9.27
2018-05-10T23:45:39.035Z,13.60
2018-05-10T23:48:06.619Z,14.37
2018-05-10T23:50:34.230Z,11.90
2018-05-10T23:53:02.564Z,13.97
2018-05-10T23:55:30.303Z,14.20
2018-05-10T23:57:57.885Z,11.17
